Tridens — PBVO — position and weather

sailwx.info

Track history (hours):
 
Tides and Currents Weather Stations Pressure Air Temp Water Temp Dewpoint Dewpoint Depression Visibility Wind Speed Wind Dir Waves Ship Positions

Oceanographic research ship Tridens (Netherlands)

Detailed information on ship capabilities available from University of Delaware's Ocean Information Center.

Last reported at 2018-Oct-02 14:11 UTC. Time now 2018-Nov-17 20:06 UTC.
Position N 51°49' E 004°02'.
Warning: this ship's position is 46 days out of date.

Length 74 m; beam 14 m.

Type: Other ship. MMSI: 244033000.

Date/timePositionNaut miles runAvg speedWind from/ knotsBaromVisibWave heightAir tempDewpointWater temp
2018-Oct-02 14:11N 51°49' E 004°02'0 0.0
2018-Oct-02 14:00N 51°49' E 004°02'3 5.8
2018-Oct-02 13:31N 51°48' E 004°07'511.9
2018-Oct-02 13:04N 51°46' E 004°15'113.7
2018-Oct-02 13:01N 51°46' E 004°16'611.7
2018-Oct-02 12:30N 51°43' E 004°24'0 0.4
2018-Oct-02 12:03N 51°43' E 004°25'0 0.0
2018-Oct-02 12:00N 51°43' E 004°25'0 0.0
2018-Oct-02 11:28N 51°43' E 004°24'0 0.4
2018-Oct-02 11:03N 51°43' E 004°25'0 3.9
2018-Oct-02 11:00N 51°43' E 004°25'3 5.8
2018-Oct-02 10:30N 51°42' E 004°29'3 7.5
2018-Oct-02 10:03N 51°42' E 004°35'0 8.5
2018-Oct-02 10:00N 51°42' E 004°35'5 9.6
2018-Oct-02 09:30N 51°47' E 004°38'510.6
2018-Oct-02 09:03N 51°50' E 004°31'114.4
2018-Oct-02 09:00N 51°50' E 004°30'612.2
2018-Oct-02 08:30N 51°51' E 004°21'4 8.8
2018-Oct-02 08:03N 51°54' E 004°16'112.5
2018-Oct-02 08:01N 51°55' E 004°15'714.6
2018-Oct-02 07:31N 51°59' E 004°06'510.0
2018-Oct-02 07:03N 52°03' E 004°03'111.2
2018-Oct-02 07:00N 52°03' E 004°04'611.5
2018-Oct-02 06:30N 52°06' E 004°12'2 4.5
2018-Oct-02 06:01N 52°06' E 004°16'0 0.0
2018-Oct-02 05:58N 52°06' E 004°16'0 0.0
2018-Oct-02 05:28N 52°06' E 004°16'0 0.0
2018-Oct-02 05:01N 52°06' E 004°16'0 0.0
2018-Oct-02 04:58N 52°06' E 004°16'0 0.0
2018-Oct-02 04:28N 52°06' E 004°16'0 0.0
2018-Oct-02 04:01N 52°06' E 004°16'0 0.0
2018-Oct-02 03:58N 52°06' E 004°16'0 0.0
2018-Oct-02 03:28N 52°06' E 004°16'0 0.0
2018-Oct-02 03:01N 52°06' E 004°16'0 0.0
2018-Oct-02 02:58N 52°06' E 004°16'0 0.0
2018-Oct-02 02:28N 52°06' E 004°16'0 0.0
2018-Oct-02 01:58N 52°06' E 004°16'0 0.0
2018-Oct-02 01:28N 52°06' E 004°16'0 0.0
2018-Oct-02 01:01N 52°06' E 004°16'0 0.0
2018-Oct-02 00:58N 52°06' E 004°16'0 0.0
2018-Oct-02 00:28N 52°06' E 004°16'0 0.0
2018-Oct-02 00:01N 52°06' E 004°16'0 0.0
2018-Oct-01 23:58N 52°06' E 004°16'0 0.0
2018-Oct-01 23:28N 52°06' E 004°16'0 0.0
2018-Oct-01 23:01N 52°06' E 004°16'0 0.1
2018-Oct-01 22:58N 52°06' E 004°16'0 0.0
2018-Oct-01 22:28N 52°06' E 004°16'0 0.0
2018-Oct-01 22:01N 52°06' E 004°16'0 0.0
2018-Oct-01 21:58N 52°06' E 004°16'0 0.0
2018-Oct-01 21:28N 52°06' E 004°16'0 0.0
2018-Oct-01 21:01N 52°06' E 004°16'0 0.0
2018-Oct-01 20:58N 52°06' E 004°16'0 0.0
2018-Oct-01 20:28N 52°06' E 004°16'0 0.0
2018-Oct-01 20:01N 52°06' E 004°16'0 0.0
2018-Oct-01 19:58N 52°06' E 004°16'0 0.0
2018-Oct-01 19:28N 52°06' E 004°16'0 0.0
2018-Oct-01 19:01N 52°06' E 004°16'0 0.0
2018-Oct-01 18:58N 52°06' E 004°16'0 0.0
2018-Oct-01 18:28N 52°06' E 004°16'0 0.0
2018-Oct-01 18:01N 52°06' E 004°16'0 0.0
2018-Oct-01 17:58N 52°06' E 004°16'2 3.8
2018-Oct-01 17:31N 52°06' E 004°13'714.9
2018-Oct-01 17:03N 52°03' E 004°03'114.9
2018-Oct-01 17:00N 52°02' E 004°02'714.3
2018-Oct-01 16:30N 51°57' E 003°54'3 7.3
2018-Oct-01 16:03N 51°54' E 003°53'0 5.1
2018-Oct-01 16:00N 51°54' E 003°53'3 5.7
2018-Oct-01 15:30N 51°52' E 003°49'2 4.8
2018-Oct-01 15:03N 51°51' E 003°46'0 2.9
2018-Oct-01 15:00N 51°51' E 003°46'3 6.2
2018-Oct-01 14:29N 51°51' E 003°40'2 3.7
2018-Oct-01 13:59N 51°53' E 003°40'4 9.2
2018-Oct-01 13:30N 51°54' E 003°47'614.6
2018-Oct-01 13:04N 51°58' E 003°55'115.8
2018-Oct-01 13:00N 51°59' E 003°56'714.7
2018-Oct-01 12:30N 52°03' E 004°05'613.9
2018-Oct-01 12:03N 52°06' E 004°14'010.3
2018-Oct-01 12:00N 52°06' E 004°15'1 1.2
2018-Oct-01 11:26N 52°06' E 004°16'0 0.0
2018-Oct-01 11:02N 52°06' E 004°16'0 0.0
2018-Oct-01 10:59N 52°06' E 004°16'0 0.0
2018-Oct-01 10:29N 52°06' E 004°16'0 0.0
2018-Oct-01 10:02N 52°06' E 004°16'0 0.1
2018-Oct-01 09:59N 52°06' E 004°16'0 0.0
2018-Oct-01 09:29N 52°06' E 004°16'0 0.0
2018-Oct-01 09:02N 52°06' E 004°16'0 0.1
2018-Oct-01 08:59N 52°06' E 004°16'0 0.0
2018-Oct-01 08:29N 52°06' E 004°16'0 0.0
2018-Oct-01 08:02N 52°06' E 004°16'0 0.0
2018-Oct-01 07:59N 52°06' E 004°16'0 0.0
2018-Oct-01 07:29N 52°06' E 004°16'0 0.0
2018-Oct-01 07:02N 52°06' E 004°16'0 0.0
2018-Oct-01 06:59N 52°06' E 004°16'0 0.0
2018-Oct-01 06:29N 52°06' E 004°16'0 0.0
2018-Oct-01 06:02N 52°06' E 004°16'0 0.0
2018-Oct-01 05:59N 52°06' E 004°16'0 0.0
2018-Oct-01 05:29N 52°06' E 004°16'0 0.0
2018-Oct-01 05:02N 52°06' E 004°16'0 0.0
2018-Oct-01 04:59N 52°06' E 004°16'0 0.0
2018-Oct-01 04:29N 52°06' E 004°16'0 0.0
2018-Oct-01 04:02N 52°06' E 004°16'0 0.0
2018-Oct-01 03:59N 52°06' E 004°16'0 0.0
2018-Oct-01 03:29N 52°06' E 004°16'0 0.0
2018-Oct-01 03:02N 52°06' E 004°16'0 0.1
2018-Oct-01 02:59N 52°06' E 004°16'0 0.0
2018-Oct-01 02:29N 52°06' E 004°16'0 0.0
2018-Oct-01 02:02N 52°06' E 004°16'0 0.0
2018-Oct-01 01:59N 52°06' E 004°16'0 0.0
2018-Oct-01 01:29N 52°06' E 004°16'0 0.0
2018-Oct-01 01:02N 52°06' E 004°16'0 0.1
2018-Oct-01 00:59N 52°06' E 004°16'0 0.0
2018-Oct-01 00:29N 52°06' E 004°16'0 0.0
2018-Oct-01 00:02N 52°06' E 004°16'0 0.1
2018-Sep-30 23:59N 52°06' E 004°16'0 0.0
2018-Sep-30 23:29N 52°06' E 004°16'0 0.0
2018-Sep-30 23:02N 52°06' E 004°16'0 0.0
2018-Sep-30 22:59N 52°06' E 004°16'0 0.0
2018-Sep-30 22:29N 52°06' E 004°16'0 0.0
2018-Sep-30 22:02N 52°06' E 004°16'0 0.0
2018-Sep-30 21:59N 52°06' E 004°16'0 0.0
2018-Sep-30 21:29N 52°06' E 004°16'0 0.0
2018-Sep-30 21:02N 52°06' E 004°16'0 0.1
2018-Sep-30 20:59N 52°06' E 004°16'0 0.0
2018-Sep-30 20:29N 52°06' E 004°16'0 0.0
2018-Sep-30 20:02N 52°06' E 004°16'0 0.0
2018-Sep-30 19:59N 52°06' E 004°16'0 0.0
2018-Sep-30 19:29N 52°06' E 004°16'0 0.0
2018-Sep-30 19:02N 52°06' E 004°16'0 0.0
2018-Sep-30 18:59N 52°06' E 004°16'0 0.0
2018-Sep-30 18:29N 52°06' E 004°16'0 0.0
2018-Sep-30 18:02N 52°06' E 004°16'0 0.1
2018-Sep-30 17:59N 52°06' E 004°16'0 0.0
2018-Sep-30 17:29N 52°06' E 004°16'0 0.0
2018-Sep-30 17:01N 52°06' E 004°16'0 0.1
2018-Sep-30 16:58N 52°06' E 004°16'0 0.0
2018-Sep-30 16:28N 52°06' E 004°16'0 0.0
2018-Sep-30 16:01N 52°06' E 004°16'0 0.0
2018-Sep-30 15:58N 52°06' E 004°16'0 0.0
2018-Sep-30 15:28N 52°06' E 004°16'0 0.0
2018-Sep-30 15:01N 52°06' E 004°16'0 0.0
2018-Sep-30 14:58N 52°06' E 004°16'0 0.0
2018-Sep-30 14:01N 52°06' E 004°16'0 0.0
2018-Sep-30 13:58N 52°06' E 004°16'0 0.0
2018-Sep-30 13:28N 52°06' E 004°16'0 0.0
2018-Sep-30 13:01N 52°06' E 004°16'0 0.0
2018-Sep-30 12:58N 52°06' E 004°16'0 0.0
2018-Sep-30 12:28N 52°06' E 004°16'0 0.0
2018-Sep-30 12:01N 52°06' E 004°16'0 0.1
2018-Sep-30 11:58N 52°06' E 004°16'0 0.0
2018-Sep-30 11:28N 52°06' E 004°16'0 0.0
2018-Sep-30 11:01N 52°06' E 004°16'0 0.0
2018-Sep-30 10:58N 52°06' E 004°16'0 0.0
2018-Sep-30 10:28N 52°06' E 004°16'0 0.0
2018-Sep-30 10:01N 52°06' E 004°16'0 0.0
2018-Sep-30 09:58N 52°06' E 004°16'0 0.0
2018-Sep-30 09:28N 52°06' E 004°16'0 0.0
2018-Sep-30 09:01N 52°06' E 004°16'0 0.1
2018-Sep-30 08:58N 52°06' E 004°16'0 0.0
2018-Sep-30 08:28N 52°06' E 004°16'0 0.0
2018-Sep-30 08:01N 52°06' E 004°16'0 0.1
2018-Sep-30 07:58N 52°06' E 004°16'0 0.0
2018-Sep-30 07:28N 52°06' E 004°16'0 0.0
2018-Sep-30 07:01N 52°06' E 004°16'0 0.0
2018-Sep-30 06:58N 52°06' E 004°16'0 0.0
2018-Sep-30 06:28N 52°06' E 004°16'0 0.0
2018-Sep-30 06:01N 52°06' E 004°16'0 0.0
2018-Sep-30 05:58N 52°06' E 004°16'0 0.0
2018-Sep-30 05:28N 52°06' E 004°16'0 0.0
2018-Sep-30 05:01N 52°06' E 004°16'0 0.1
2018-Sep-30 04:58N 52°06' E 004°16'0 0.0
2018-Sep-30 04:28N 52°06' E 004°16'0 0.0
2018-Sep-30 04:01N 52°06' E 004°16'0 0.1
2018-Sep-30 03:58N 52°06' E 004°16'0 0.0
2018-Sep-30 03:28N 52°06' E 004°16'0 0.0
2018-Sep-30 03:01N 52°06' E 004°16'0 0.0
2018-Sep-30 02:58N 52°06' E 004°16'0 0.0
2018-Sep-30 02:28N 52°06' E 004°16'0 0.0
2018-Sep-30 02:01N 52°06' E 004°16'0 0.1
2018-Sep-30 01:58N 52°06' E 004°16'0 0.0
2018-Sep-30 01:28N 52°06' E 004°16'0 0.0
2018-Sep-30 01:01N 52°06' E 004°16'0 0.1
2018-Sep-30 00:58N 52°06' E 004°16'0 0.0
2018-Sep-30 00:28N 52°06' E 004°16'0 0.0
2018-Sep-30 00:01N 52°06' E 004°16'0 0.1
2018-Sep-29 23:58N 52°06' E 004°16'0 0.0
2018-Sep-29 23:25N 52°06' E 004°16'0 0.0
2018-Sep-29 23:01N 52°06' E 004°16'0 0.1
2018-Sep-29 22:58N 52°06' E 004°16'0 0.0
2018-Sep-29 22:28N 52°06' E 004°16'0 0.0
2018-Sep-29 22:01N 52°06' E 004°16'0 0.1
2018-Sep-29 21:58N 52°06' E 004°16'0 0.0
2018-Sep-29 21:28N 52°06' E 004°16'0 0.0
2018-Sep-29 21:01N 52°06' E 004°16'0 0.1
2018-Sep-29 20:58N 52°06' E 004°16'0 0.0
2018-Sep-29 20:28N 52°06' E 004°16'0 0.0
2018-Sep-29 20:01N 52°06' E 004°16'0 0.1
2018-Sep-29 19:58N 52°06' E 004°16'0 0.0
2018-Sep-29 19:28N 52°06' E 004°16'0 0.0
2018-Sep-29 19:01N 52°06' E 004°16'0 0.1
2018-Sep-29 18:58N 52°06' E 004°16'0 0.0
2018-Sep-29 18:28N 52°06' E 004°16'0 0.0
2018-Sep-29 18:01N 52°06' E 004°16'0 0.0
2018-Sep-29 17:58N 52°06' E 004°16'0 0.0
2018-Sep-29 17:28N 52°06' E 004°16'0 0.0
2018-Sep-29 17:01N 52°06' E 004°16'0 0.0
2018-Sep-29 16:58N 52°06' E 004°16'0 0.0
2018-Sep-29 16:28N 52°06' E 004°16'0 0.0
2018-Sep-29 16:01N 52°06' E 004°16'0 0.1
2018-Sep-29 15:58N 52°06' E 004°16'0 0.0
2018-Sep-29 15:28N 52°06' E 004°16'0 0.0
2018-Sep-29 15:01N 52°06' E 004°16'0 0.0
2018-Sep-29 14:58N 52°06' E 004°16'0 0.0
2018-Sep-29 14:01N 52°06' E 004°16'0 0.0
2018-Sep-29 13:58N 52°06' E 004°16'0 0.0
2018-Sep-29 13:28N 52°06' E 004°16'0 0.0
2018-Sep-29 13:01N 52°06' E 004°16'0 0.1
2018-Sep-29 12:58N 52°06' E 004°16'0 0.0
2018-Sep-29 12:28N 52°06' E 004°16'0 0.0
2018-Sep-29 12:01N 52°06' E 004°16'0 0.0
2018-Sep-29 11:58N 52°06' E 004°16'0 0.0
2018-Sep-29 11:28N 52°06' E 004°16'0 0.0
2018-Sep-29 11:01N 52°06' E 004°16'0 0.0
2018-Sep-29 10:58N 52°06' E 004°16'0 0.0
2018-Sep-29 10:28N 52°06' E 004°16'0 0.0
2018-Sep-29 10:01N 52°06' E 004°16'0 0.0
2018-Sep-29 09:58N 52°06' E 004°16'0 0.0
2018-Sep-29 09:28N 52°06' E 004°16'0 0.0
2018-Sep-29 09:01N 52°06' E 004°16'0 0.0
2018-Sep-29 08:58N 52°06' E 004°16'0 0.0
2018-Sep-29 08:28N 52°06' E 004°16'0 0.0
2018-Sep-29 08:01N 52°06' E 004°16'0 0.0
2018-Sep-29 07:58N 52°06' E 004°16'0 0.0
2018-Sep-29 07:28N 52°06' E 004°16'0 0.0
2018-Sep-29 07:01N 52°06' E 004°16'0 0.0
2018-Sep-29 06:58N 52°06' E 004°16'0 0.0
2018-Sep-29 06:28N 52°06' E 004°16'0 0.0
2018-Sep-29 06:01N 52°06' E 004°16'0 0.1
2018-Sep-29 05:58N 52°06' E 004°16'0 0.0
2018-Sep-29 05:28N 52°06' E 004°16'0 0.0
2018-Sep-29 05:02N 52°06' E 004°16'0 0.1
2018-Sep-29 04:59N 52°06' E 004°16'0 0.0
2018-Sep-29 04:02N 52°06' E 004°16'0 0.1
2018-Sep-29 03:59N 52°06' E 004°16'0 0.0
2018-Sep-29 03:29N 52°06' E 004°16'0 0.0
2018-Sep-29 03:02N 52°06' E 004°16'0 0.0
2018-Sep-29 02:59N 52°06' E 004°16'0 0.0
2018-Sep-29 02:29N 52°06' E 004°16'0 0.0
2018-Sep-29 02:02N 52°06' E 004°16'0 0.0
2018-Sep-29 01:59N 52°06' E 004°16'0 0.0
2018-Sep-29 01:29N 52°06' E 004°16'0 0.0
2018-Sep-29 01:02N 52°06' E 004°16'0 0.0
2018-Sep-29 00:59N 52°06' E 004°16'0 0.0
2018-Sep-29 00:29N 52°06' E 004°16'0 0.0
2018-Sep-29 00:02N 52°06' E 004°16'0 0.0
2018-Sep-28 23:59N 52°06' E 004°16'0 0.0
2018-Sep-28 23:29N 52°06' E 004°16'0 0.0
2018-Sep-28 23:02N 52°06' E 004°16'0 0.0
2018-Sep-28 22:59N 52°06' E 004°16'0 0.0
2018-Sep-28 22:29N 52°06' E 004°16'0 0.0
2018-Sep-28 22:02N 52°06' E 004°16'0 0.0
2018-Sep-28 21:59N 52°06' E 004°16'0 0.0
2018-Sep-28 21:29N 52°06' E 004°16'0 0.0
2018-Sep-28 21:02N 52°06' E 004°16'0 0.0
2018-Sep-28 20:59N 52°06' E 004°16'0 0.0
2018-Sep-28 20:29N 52°06' E 004°16'0 0.0
2018-Sep-28 20:02N 52°06' E 004°16'0 0.1
2018-Sep-28 19:59N 52°06' E 004°16'0 0.0
2018-Sep-28 19:29N 52°06' E 004°16'0 0.0
2018-Sep-28 19:02N 52°06' E 004°16'0 0.0
2018-Sep-28 18:59N 52°06' E 004°16'0 0.0
2018-Sep-28 18:29N 52°06' E 004°16'0 0.0
2018-Sep-28 18:02N 52°06' E 004°16'0 0.1
2018-Sep-28 17:59N 52°06' E 004°16'0 0.0
2018-Sep-28 17:29N 52°06' E 004°16'0 0.0
2018-Sep-28 17:02N 52°06' E 004°16'0 0.0
2018-Sep-28 16:59N 52°06' E 004°16'0 0.0
2018-Sep-28 16:29N 52°06' E 004°16'0 0.0
2018-Sep-28 16:02N 52°06' E 004°16'0 0.0
2018-Sep-28 15:59N 52°06' E 004°16'0 0.0
2018-Sep-28 15:29N 52°06' E 004°16'0 0.0
2018-Sep-28 15:02N 52°06' E 004°16'0 0.0
2018-Sep-28 14:59N 52°06' E 004°16'0 0.0
2018-Sep-28 14:02N 52°06' E 004°16'0 0.0
2018-Sep-28 13:29N 52°06' E 004°16'0 0.0
2018-Sep-28 13:02N 52°06' E 004°16'0 0.1
2018-Sep-28 12:59N 52°06' E 004°16'0 0.0
2018-Sep-28 12:29N 52°06' E 004°16'0 0.0
2018-Sep-28 12:02N 52°06' E 004°16'0 0.0
2018-Sep-28 11:59N 52°06' E 004°16'0 0.0
2018-Sep-28 11:29N 52°06' E 004°16'0 0.0
2018-Sep-28 11:02N 52°06' E 004°16'0 0.0
2018-Sep-28 10:59N 52°06' E 004°16'0 0.0
2018-Sep-28 10:29N 52°06' E 004°16'0 0.0
2018-Sep-28 10:02N 52°06' E 004°16'0 0.1
2018-Sep-28 09:59N 52°06' E 004°16'0 0.0
2018-Sep-28 09:29N 52°06' E 004°16'0 0.0
2018-Sep-28 09:02N 52°06' E 004°16'0 0.0
2018-Sep-28 08:59N 52°06' E 004°16'0 0.0
2018-Sep-28 08:29N 52°06' E 004°16'0 0.0
2018-Sep-28 08:03N 52°06' E 004°16'0 1.9
2018-Sep-28 08:00N 52°06' E 004°16'510.8
2018-Sep-28 07:31N 52°11' E 004°16'510.1
2018-Sep-28 07:03N 52°16' E 004°14'110.1
2018-Sep-28 07:00N 52°16' E 004°14'4 7.4
2018-Sep-28 06:31N 52°20' E 004°14'3 7.4
2018-Sep-28 06:03N 52°23' E 004°14'0 7.3
2018-Sep-28 06:00N 52°23' E 004°14'510.5
2018-Sep-28 05:30N 52°28' E 004°10'613.0
2018-Sep-28 05:04N 52°34' E 004°06'112.9
2018-Sep-28 05:01N 52°34' E 004°06'18410.4
2018-Sep-27 11:20N 55°14' E 001°34'1 4.6
2018-Sep-27 11:03N 55°15' E 001°32'114.6
2018-Sep-27 11:00N 55°15' E 001°30'4 8.1
2018-Sep-27 10:31N 55°11' E 001°29'85 6.2
2018-Sep-26 20:53N 53°53' E 000°29'3 7.8
2018-Sep-26 20:30N 53°56' E 000°28'813.6
2018-Sep-26 19:55N 54°04' E 000°28'18 1.2
2018-Sep-26 04:55N 54°19' E 000°09'4 7.4
2018-Sep-26 04:24N 54°15' E 000°09'2 5.9
2018-Sep-26 04:02N 54°13' E 000°08'012.3
2018-Sep-26 04:01N 54°12' E 000°08'612.0
2018-Sep-26 03:31N 54°06' E 000°09'2 5.2
2018-Sep-26 03:03N 54°04' E 000°09'112.7
2018-Sep-26 03:00N 54°03' E 000°09'612.2
2018-Sep-26 02:30N 53°57' E 000°08'1 3.2
2018-Sep-26 02:03N 53°58' E 000°07'114.0
2018-Sep-26 02:00N 53°59' E 000°06'714.6
2018-Sep-26 01:30N 54°05' E 000°01'714.5
2018-Sep-26 01:03N 54°11' W 000°04'114.3
2018-Sep-26 00:59N 54°12' W 000°05'5 9.2
2018-Sep-26 00:30N 54°16' W 000°09'4 8.2
2018-Sep-26 00:03N 54°19' W 000°09'113.3
2018-Sep-26 00:00N 54°20' W 000°09'1211.0
2018-Sep-25 22:52N 54°32' W 000°10'91 3.1
2018-Sep-24 17:31N 55°57' W 001°08'3 6.6
2018-Sep-24 17:07N 55°55' W 001°10'113.9
2018-Sep-24 17:04N 55°54' W 001°10'113.4
2018-Sep-24 17:01N 55°53' W 001°10'713.0
2018-Sep-24 16:30N 55°47' W 001°09'3 6.5
2018-Sep-24 16:03N 55°44' W 001°10'112.8
2018-Sep-24 16:01N 55°43' W 001°09'612.7
2018-Sep-24 15:30N 55°37' W 001°07'2 4.5
2018-Sep-24 15:03N 55°35' W 001°09'0 5.1
2018-Sep-24 15:00N 55°35' W 001°10'1 1.7
2018-Sep-24 14:30N 55°35' W 001°11'1 2.2
2018-Sep-24 14:01N 55°35' W 001°10'1 1.6
2018-Sep-24 13:26N 55°34' W 001°09'1 2.4
2018-Sep-24 13:02N 55°34' W 001°08'0 3.0
2018-Sep-24 12:54N 55°35' W 001°07'3 2.6
2018-Sep-24 11:45N 55°38' W 001°07'2 7.3
2018-Sep-24 11:30N 55°36' W 001°09'2 4.2
2018-Sep-24 11:03N 55°34' W 001°10'10 6.4
2018-Sep-24 09:25N 55°24' W 001°10'714.0
2018-Sep-24 08:57N 55°17' W 001°10'3 5.8
2018-Sep-24 08:30N 55°15' W 001°10'612.6
2018-Sep-24 08:03N 55°09' W 001°06'0 3.3
2018-Sep-24 08:00N 55°10' W 001°06'2 4.1
2018-Sep-24 07:29N 55°12' W 001°07'1 3.0
2018-Sep-24 07:04N 55°10' W 001°06'0 5.9
2018-Sep-24 07:00N 55°10' W 001°06'2 4.2
2018-Sep-24 06:30N 55°08' W 001°07'714.5
2018-Sep-24 06:03N 55°07' W 001°18'113.9
2018-Sep-24 06:00N 55°06' W 001°19'510.9
2018-Sep-24 05:30N 55°07' W 001°29'2 4.2
2018-Sep-24 05:03N 55°08' W 001°31'0 0.0
2018-Sep-24 05:00N 55°08' W 001°31'0 0.0
2018-Sep-24 04:30N 55°08' W 001°31'0 0.0
2018-Sep-24 04:01N 55°08' W 001°31'0 0.0
2018-Sep-24 03:58N 55°08' W 001°31'0 0.0
2018-Sep-24 03:25N 55°08' W 001°31'0 0.0
2018-Sep-24 03:01N 55°08' W 001°31'0 0.0
2018-Sep-24 02:58N 55°08' W 001°31'0 0.0
2018-Sep-24 02:28N 55°08' W 001°31'0 0.0
2018-Sep-24 02:01N 55°08' W 001°31'0 0.1
2018-Sep-24 01:58N 55°08' W 001°31'0 0.0
2018-Sep-24 01:28N 55°08' W 001°31'0 0.0
2018-Sep-24 01:01N 55°08' W 001°31'0 0.0
2018-Sep-24 00:58N 55°08' W 001°31'0 0.0
2018-Sep-24 00:28N 55°08' W 001°31'0 0.0
2018-Sep-24 00:01N 55°08' W 001°31'0 0.0
2018-Sep-23 23:58N 55°08' W 001°31'0 0.0
2018-Sep-23 23:28N 55°08' W 001°31'0 0.0
2018-Sep-23 23:01N 55°08' W 001°31'0 0.0
2018-Sep-23 22:58N 55°08' W 001°31'0 0.0
2018-Sep-23 22:28N 55°08' W 001°31'0 0.0
2018-Sep-23 22:01N 55°08' W 001°31'0 0.1
2018-Sep-23 21:58N 55°08' W 001°31'0 0.0
2018-Sep-23 21:25N 55°08' W 001°31'0 0.0
2018-Sep-23 21:01N 55°08' W 001°31'0 0.0
2018-Sep-23 20:58N 55°08' W 001°31'0 0.0
2018-Sep-23 20:28N 55°08' W 001°31'0 0.0
2018-Sep-23 20:01N 55°08' W 001°31'0 0.1
2018-Sep-23 19:58N 55°08' W 001°31'0 0.0
2018-Sep-23 19:28N 55°08' W 001°31'0 0.0
2018-Sep-23 19:01N 55°08' W 001°31'0 0.1
2018-Sep-23 18:58N 55°08' W 001°31'0 0.0
2018-Sep-23 18:28N 55°08' W 001°31'0 0.0
2018-Sep-23 18:01N 55°08' W 001°31'0 0.0
2018-Sep-23 17:58N 55°08' W 001°31'0 0.0
2018-Sep-23 17:28N 55°08' W 001°31'0 0.0
2018-Sep-23 17:01N 55°08' W 001°31'0 0.0
2018-Sep-23 16:58N 55°08' W 001°31'0 0.0
2018-Sep-23 16:28N 55°08' W 001°31'0 0.0
2018-Sep-23 16:01N 55°08' W 001°31'0 0.1
2018-Sep-23 15:58N 55°08' W 001°31'0 0.0
2018-Sep-23 15:28N 55°08' W 001°31'0 0.0
2018-Sep-23 15:01N 55°08' W 001°31'0 0.0
2018-Sep-23 14:58N 55°08' W 001°31'0 0.0
2018-Sep-23 14:28N 55°08' W 001°31'0 0.0
2018-Sep-23 13:28N 55°08' W 001°31'0 0.0
2018-Sep-23 12:58N 55°08' W 001°31'0 0.0
2018-Sep-23 12:28N 55°08' W 001°31'0 0.0
2018-Sep-23 12:01N 55°08' W 001°31'0 0.0
2018-Sep-23 11:58N 55°08' W 001°31'0 0.0
2018-Sep-23 11:28N 55°08' W 001°31'0 0.0
2018-Sep-23 11:01N 55°08' W 001°31'0 0.0
2018-Sep-23 10:58N 55°08' W 001°31'0 0.0
2018-Sep-23 10:28N 55°08' W 001°31'0 0.0
2018-Sep-23 10:01N 55°08' W 001°31'0 0.0
2018-Sep-23 09:58N 55°08' W 001°31'0 0.0
2018-Sep-23 09:28N 55°08' W 001°31'0 0.0
2018-Sep-23 09:01N 55°08' W 001°31'0 0.0
2018-Sep-23 08:58N 55°08' W 001°31'0 0.0
2018-Sep-23 08:28N 55°08' W 001°31'0 0.0
2018-Sep-23 08:01N 55°08' W 001°31'0 0.1
2018-Sep-23 07:58N 55°08' W 001°31'0 0.0
2018-Sep-23 07:28N 55°08' W 001°31'0 0.0
2018-Sep-23 07:01N 55°08' W 001°31'0 0.0
2018-Sep-23 06:58N 55°08' W 001°31'0 0.0
2018-Sep-23 06:28N 55°08' W 001°31'0 0.0
2018-Sep-23 06:01N 55°08' W 001°31'0 0.0
2018-Sep-23 05:58N 55°08' W 001°31'0 0.0
2018-Sep-23 05:25N 55°08' W 001°31'0 0.0
2018-Sep-23 05:01N 55°08' W 001°31'0 0.0
2018-Sep-23 04:58N 55°08' W 001°31'0 0.0
2018-Sep-23 04:28N 55°08' W 001°31'0 0.0
2018-Sep-23 04:01N 55°08' W 001°31'0 0.1
2018-Sep-23 03:58N 55°08' W 001°31'0 0.0
2018-Sep-23 03:28N 55°08' W 001°31'0 0.0
2018-Sep-23 03:01N 55°08' W 001°31'0 0.0
2018-Sep-23 02:58N 55°08' W 001°31'0 0.0
2018-Sep-23 02:28N 55°08' W 001°31'0 0.0
2018-Sep-23 02:01N 55°08' W 001°31'0 0.0
2018-Sep-23 01:58N 55°08' W 001°31'0 0.0
2018-Sep-23 01:28N 55°08' W 001°31'0 0.0
2018-Sep-23 01:01N 55°08' W 001°31'0 0.0
2018-Sep-23 00:58N 55°08' W 001°31'0 0.0
2018-Sep-23 00:28N 55°08' W 001°31'0 0.0
2018-Sep-23 00:01N 55°08' W 001°31'0 0.1
2018-Sep-22 23:58N 55°08' W 001°31'0 0.0
2018-Sep-22 23:28N 55°08' W 001°31'0 0.0
2018-Sep-22 22:58N 55°08' W 001°31'0 0.0
2018-Sep-22 22:28N 55°08' W 001°31'0 0.0
2018-Sep-22 22:01N 55°08' W 001°31'0 0.0
2018-Sep-22 21:58N 55°08' W 001°31'0 0.0
2018-Sep-22 21:28N 55°08' W 001°31'0 0.0
2018-Sep-22 21:01N 55°08' W 001°31'0 0.0
2018-Sep-22 20:58N 55°08' W 001°31'0 0.0
2018-Sep-22 20:28N 55°08' W 001°31'0 0.0
2018-Sep-22 20:01N 55°08' W 001°31'0 0.1
2018-Sep-22 19:58N 55°08' W 001°31'0 0.0
2018-Sep-22 19:28N 55°08' W 001°31'0 0.0
2018-Sep-22 19:01N 55°08' W 001°31'0 0.1
2018-Sep-22 18:58N 55°08' W 001°31'0 0.0
2018-Sep-22 18:28N 55°08' W 001°31'0 0.0
2018-Sep-22 18:01N 55°08' W 001°31'0 0.0
2018-Sep-22 17:58N 55°08' W 001°31'0 0.0
2018-Sep-22 17:28N 55°08' W 001°31'0 0.0
2018-Sep-22 17:01N 55°08' W 001°31'0 0.0
2018-Sep-22 16:58N 55°08' W 001°31'0 0.0
2018-Sep-22 16:28N 55°08' W 001°31'0 0.0
2018-Sep-22 16:01N 55°08' W 001°31'0 0.1
2018-Sep-22 15:58N 55°08' W 001°31'0 0.0
2018-Sep-22 15:31N 55°08' W 001°31'2 3.8
2018-Sep-22 15:03N 55°07' W 001°29'0 8.6
2018-Sep-22 15:00N 55°06' W 001°29'3 6.8
2018-Sep-22 14:30N 55°05' W 001°23'  
Track history (hours):
 
Tides and Currents Weather Stations Pressure Air Temp Water Temp Dewpoint Dewpoint Depression Visibility Wind Speed Wind Dir Waves Ship Positions

Oceanographic research ship Tridens (Netherlands)

Detailed information on ship capabilities available from University of Delaware's Ocean Information Center.

Last reported at 2018-Oct-02 14:11 UTC. Time now 2018-Nov-17 20:06 UTC.
Position N 51°49' E 004°02'.
Warning: this ship's position is 46 days out of date.

Length 74 m; beam 14 m.

Type: Other ship. MMSI: 244033000.

Date/timePositionNaut miles runAvg speedWind from/ knotsBaromVisibWave heightAir tempDewpointWater temp
2018-Oct-02 14:11N 51°49' E 004°02'0 0.0
2018-Oct-02 14:00N 51°49' E 004°02'3 5.8
2018-Oct-02 13:31N 51°48' E 004°07'511.9
2018-Oct-02 13:04N 51°46' E 004°15'113.7
2018-Oct-02 13:01N 51°46' E 004°16'611.7
2018-Oct-02 12:30N 51°43' E 004°24'0 0.4
2018-Oct-02 12:03N 51°43' E 004°25'0 0.0
2018-Oct-02 12:00N 51°43' E 004°25'0 0.0
2018-Oct-02 11:28N 51°43' E 004°24'0 0.4
2018-Oct-02 11:03N 51°43' E 004°25'0 3.9
2018-Oct-02 11:00N 51°43' E 004°25'3 5.8
2018-Oct-02 10:30N 51°42' E 004°29'3 7.5
2018-Oct-02 10:03N 51°42' E 004°35'0 8.5
2018-Oct-02 10:00N 51°42' E 004°35'5 9.6
2018-Oct-02 09:30N 51°47' E 004°38'510.6
2018-Oct-02 09:03N 51°50' E 004°31'114.4
2018-Oct-02 09:00N 51°50' E 004°30'612.2
2018-Oct-02 08:30N 51°51' E 004°21'4 8.8
2018-Oct-02 08:03N 51°54' E 004°16'112.5
2018-Oct-02 08:01N 51°55' E 004°15'714.6
2018-Oct-02 07:31N 51°59' E 004°06'510.0
2018-Oct-02 07:03N 52°03' E 004°03'111.2
2018-Oct-02 07:00N 52°03' E 004°04'611.5
2018-Oct-02 06:30N 52°06' E 004°12'2 4.5
2018-Oct-02 06:01N 52°06' E 004°16'0 0.0
2018-Oct-02 05:58N 52°06' E 004°16'0 0.0
2018-Oct-02 05:28N 52°06' E 004°16'0 0.0
2018-Oct-02 05:01N 52°06' E 004°16'0 0.0
2018-Oct-02 04:58N 52°06' E 004°16'0 0.0
2018-Oct-02 04:28N 52°06' E 004°16'0 0.0
2018-Oct-02 04:01N 52°06' E 004°16'0 0.0
2018-Oct-02 03:58N 52°06' E 004°16'0 0.0
2018-Oct-02 03:28N 52°06' E 004°16'0 0.0
2018-Oct-02 03:01N 52°06' E 004°16'0 0.0
2018-Oct-02 02:58N 52°06' E 004°16'0 0.0
2018-Oct-02 02:28N 52°06' E 004°16'0 0.0
2018-Oct-02 01:58N 52°06' E 004°16'0 0.0
2018-Oct-02 01:28N 52°06' E 004°16'0 0.0
2018-Oct-02 01:01N 52°06' E 004°16'0 0.0
2018-Oct-02 00:58N 52°06' E 004°16'0 0.0
2018-Oct-02 00:28N 52°06' E 004°16'0 0.0
2018-Oct-02 00:01N 52°06' E 004°16'0 0.0
2018-Oct-01 23:58N 52°06' E 004°16'0 0.0
2018-Oct-01 23:28N 52°06' E 004°16'0 0.0
2018-Oct-01 23:01N 52°06' E 004°16'0 0.1
2018-Oct-01 22:58N 52°06' E 004°16'0 0.0
2018-Oct-01 22:28N 52°06' E 004°16'0 0.0
2018-Oct-01 22:01N 52°06' E 004°16'0 0.0
2018-Oct-01 21:58N 52°06' E 004°16'0 0.0
2018-Oct-01 21:28N 52°06' E 004°16'0 0.0
2018-Oct-01 21:01N 52°06' E 004°16'0 0.0
2018-Oct-01 20:58N 52°06' E 004°16'0 0.0
2018-Oct-01 20:28N 52°06' E 004°16'0 0.0
2018-Oct-01 20:01N 52°06' E 004°16'0 0.0
2018-Oct-01 19:58N 52°06' E 004°16'0 0.0
2018-Oct-01 19:28N 52°06' E 004°16'0 0.0
2018-Oct-01 19:01N 52°06' E 004°16'0 0.0
2018-Oct-01 18:58N 52°06' E 004°16'0 0.0
2018-Oct-01 18:28N 52°06' E 004°16'0 0.0
2018-Oct-01 18:01N 52°06' E 004°16'0 0.0
2018-Oct-01 17:58N 52°06' E 004°16'2 3.8
2018-Oct-01 17:31N 52°06' E 004°13'714.9
2018-Oct-01 17:03N 52°03' E 004°03'114.9
2018-Oct-01 17:00N 52°02' E 004°02'714.3
2018-Oct-01 16:30N 51°57' E 003°54'3 7.3
2018-Oct-01 16:03N 51°54' E 003°53'0 5.1
2018-Oct-01 16:00N 51°54' E 003°53'3 5.7
2018-Oct-01 15:30N 51°52' E 003°49'2 4.8
2018-Oct-01 15:03N 51°51' E 003°46'0 2.9
2018-Oct-01 15:00N 51°51' E 003°46'3 6.2
2018-Oct-01 14:29N 51°51' E 003°40'2 3.7
2018-Oct-01 13:59N 51°53' E 003°40'4 9.2
2018-Oct-01 13:30N 51°54' E 003°47'614.6
2018-Oct-01 13:04N 51°58' E 003°55'115.8
2018-Oct-01 13:00N 51°59' E 003°56'714.7
2018-Oct-01 12:30N 52°03' E 004°05'613.9
2018-Oct-01 12:03N 52°06' E 004°14'010.3
2018-Oct-01 12:00N 52°06' E 004°15'1 1.2
2018-Oct-01 11:26N 52°06' E 004°16'0 0.0
2018-Oct-01 11:02N 52°06' E 004°16'0 0.0
2018-Oct-01 10:59N 52°06' E 004°16'0 0.0
2018-Oct-01 10:29N 52°06' E 004°16'0 0.0
2018-Oct-01 10:02N 52°06' E 004°16'0 0.1
2018-Oct-01 09:59N 52°06' E 004°16'0 0.0
2018-Oct-01 09:29N 52°06' E 004°16'0 0.0
2018-Oct-01 09:02N 52°06' E 004°16'0 0.1
2018-Oct-01 08:59N 52°06' E 004°16'0 0.0
2018-Oct-01 08:29N 52°06' E 004°16'0 0.0
2018-Oct-01 08:02N 52°06' E 004°16'0 0.0
2018-Oct-01 07:59N 52°06' E 004°16'0 0.0
2018-Oct-01 07:29N 52°06' E 004°16'0 0.0
2018-Oct-01 07:02N 52°06' E 004°16'0 0.0
2018-Oct-01 06:59N 52°06' E 004°16'0 0.0
2018-Oct-01 06:29N 52°06' E 004°16'0 0.0
2018-Oct-01 06:02N 52°06' E 004°16'0 0.0
2018-Oct-01 05:59N 52°06' E 004°16'0 0.0
2018-Oct-01 05:29N 52°06' E 004°16'0 0.0
2018-Oct-01 05:02N 52°06' E 004°16'0 0.0
2018-Oct-01 04:59N 52°06' E 004°16'0 0.0
2018-Oct-01 04:29N 52°06' E 004°16'0 0.0
2018-Oct-01 04:02N 52°06' E 004°16'0 0.0
2018-Oct-01 03:59N 52°06' E 004°16'0 0.0
2018-Oct-01 03:29N 52°06' E 004°16'0 0.0
2018-Oct-01 03:02N 52°06' E 004°16'0 0.1
2018-Oct-01 02:59N 52°06' E 004°16'0 0.0
2018-Oct-01 02:29N 52°06' E 004°16'0 0.0
2018-Oct-01 02:02N 52°06' E 004°16'0 0.0
2018-Oct-01 01:59N 52°06' E 004°16'0 0.0
2018-Oct-01 01:29N 52°06' E 004°16'0 0.0
2018-Oct-01 01:02N 52°06' E 004°16'0 0.1
2018-Oct-01 00:59N 52°06' E 004°16'0 0.0
2018-Oct-01 00:29N 52°06' E 004°16'0 0.0
2018-Oct-01 00:02N 52°06' E 004°16'0 0.1
2018-Sep-30 23:59N 52°06' E 004°16'0 0.0
2018-Sep-30 23:29N 52°06' E 004°16'0 0.0
2018-Sep-30 23:02N 52°06' E 004°16'0 0.0
2018-Sep-30 22:59N 52°06' E 004°16'0 0.0
2018-Sep-30 22:29N 52°06' E 004°16'0 0.0
2018-Sep-30 22:02N 52°06' E 004°16'0 0.0
2018-Sep-30 21:59N 52°06' E 004°16'0 0.0
2018-Sep-30 21:29N 52°06' E 004°16'0 0.0
2018-Sep-30 21:02N 52°06' E 004°16'0 0.1
2018-Sep-30 20:59N 52°06' E 004°16'0 0.0
2018-Sep-30 20:29N 52°06' E 004°16'0 0.0
2018-Sep-30 20:02N 52°06' E 004°16'0 0.0
2018-Sep-30 19:59N 52°06' E 004°16'0 0.0
2018-Sep-30 19:29N 52°06' E 004°16'0 0.0
2018-Sep-30 19:02N 52°06' E 004°16'0 0.0
2018-Sep-30 18:59N 52°06' E 004°16'0 0.0
2018-Sep-30 18:29N 52°06' E 004°16'0 0.0
2018-Sep-30 18:02N 52°06' E 004°16'0 0.1
2018-Sep-30 17:59N 52°06' E 004°16'0 0.0
2018-Sep-30 17:29N 52°06' E 004°16'0 0.0
2018-Sep-30 17:01N 52°06' E 004°16'0 0.1
2018-Sep-30 16:58N 52°06' E 004°16'0 0.0
2018-Sep-30 16:28N 52°06' E 004°16'0 0.0
2018-Sep-30 16:01N 52°06' E 004°16'0 0.0
2018-Sep-30 15:58N 52°06' E 004°16'0 0.0
2018-Sep-30 15:28N 52°06' E 004°16'0 0.0
2018-Sep-30 15:01N 52°06' E 004°16'0 0.0
2018-Sep-30 14:58N 52°06' E 004°16'0 0.0
2018-Sep-30 14:01N 52°06' E 004°16'0 0.0
2018-Sep-30 13:58N 52°06' E 004°16'0 0.0
2018-Sep-30 13:28N 52°06' E 004°16'0 0.0
2018-Sep-30 13:01N 52°06' E 004°16'0 0.0
2018-Sep-30 12:58N 52°06' E 004°16'0 0.0
2018-Sep-30 12:28N 52°06' E 004°16'0 0.0
2018-Sep-30 12:01N 52°06' E 004°16'0 0.1
2018-Sep-30 11:58N 52°06' E 004°16'0 0.0
2018-Sep-30 11:28N 52°06' E 004°16'0 0.0
2018-Sep-30 11:01N 52°06' E 004°16'0 0.0
2018-Sep-30 10:58N 52°06' E 004°16'0 0.0
2018-Sep-30 10:28N 52°06' E 004°16'0 0.0
2018-Sep-30 10:01N 52°06' E 004°16'0 0.0
2018-Sep-30 09:58N 52°06' E 004°16'0 0.0
2018-Sep-30 09:28N 52°06' E 004°16'0 0.0
2018-Sep-30 09:01N 52°06' E 004°16'0 0.1
2018-Sep-30 08:58N 52°06' E 004°16'0 0.0
2018-Sep-30 08:28N 52°06' E 004°16'0 0.0
2018-Sep-30 08:01N 52°06' E 004°16'0 0.1
2018-Sep-30 07:58N 52°06' E 004°16'0 0.0
2018-Sep-30 07:28N 52°06' E 004°16'0 0.0
2018-Sep-30 07:01N 52°06' E 004°16'0 0.0
2018-Sep-30 06:58N 52°06' E 004°16'0 0.0
2018-Sep-30 06:28N 52°06' E 004°16'0 0.0
2018-Sep-30 06:01N 52°06' E 004°16'0 0.0
2018-Sep-30 05:58N 52°06' E 004°16'0 0.0
2018-Sep-30 05:28N 52°06' E 004°16'0 0.0
2018-Sep-30 05:01N 52°06' E 004°16'0 0.1
2018-Sep-30 04:58N 52°06' E 004°16'0 0.0
2018-Sep-30 04:28N 52°06' E 004°16'0 0.0
2018-Sep-30 04:01N 52°06' E 004°16'0 0.1
2018-Sep-30 03:58N 52°06' E 004°16'0 0.0
2018-Sep-30 03:28N 52°06' E 004°16'0 0.0
2018-Sep-30 03:01N 52°06' E 004°16'0 0.0
2018-Sep-30 02:58N 52°06' E 004°16'0 0.0
2018-Sep-30 02:28N 52°06' E 004°16'0 0.0
2018-Sep-30 02:01N 52°06' E 004°16'0 0.1
2018-Sep-30 01:58N 52°06' E 004°16'0 0.0
2018-Sep-30 01:28N 52°06' E 004°16'0 0.0
2018-Sep-30 01:01N 52°06' E 004°16'0 0.1
2018-Sep-30 00:58N 52°06' E 004°16'0 0.0
2018-Sep-30 00:28N 52°06' E 004°16'0 0.0
2018-Sep-30 00:01N 52°06' E 004°16'0 0.1
2018-Sep-29 23:58N 52°06' E 004°16'0 0.0
2018-Sep-29 23:25N 52°06' E 004°16'0 0.0
2018-Sep-29 23:01N 52°06' E 004°16'0 0.1
2018-Sep-29 22:58N 52°06' E 004°16'0 0.0
2018-Sep-29 22:28N 52°06' E 004°16'0 0.0
2018-Sep-29 22:01N 52°06' E 004°16'0 0.1
2018-Sep-29 21:58N 52°06' E 004°16'0 0.0
2018-Sep-29 21:28N 52°06' E 004°16'0 0.0
2018-Sep-29 21:01N 52°06' E 004°16'0 0.1
2018-Sep-29 20:58N 52°06' E 004°16'0 0.0
2018-Sep-29 20:28N 52°06' E 004°16'0 0.0
2018-Sep-29 20:01N 52°06' E 004°16'0 0.1
2018-Sep-29 19:58N 52°06' E 004°16'0 0.0
2018-Sep-29 19:28N 52°06' E 004°16'0 0.0
2018-Sep-29 19:01N 52°06' E 004°16'0 0.1
2018-Sep-29 18:58N 52°06' E 004°16'0 0.0
2018-Sep-29 18:28N 52°06' E 004°16'0 0.0
2018-Sep-29 18:01N 52°06' E 004°16'0 0.0
2018-Sep-29 17:58N 52°06' E 004°16'0 0.0
2018-Sep-29 17:28N 52°06' E 004°16'0 0.0
2018-Sep-29 17:01N 52°06' E 004°16'0 0.0
2018-Sep-29 16:58N 52°06' E 004°16'0 0.0
2018-Sep-29 16:28N 52°06' E 004°16'0 0.0
2018-Sep-29 16:01N 52°06' E 004°16'0 0.1
2018-Sep-29 15:58N 52°06' E 004°16'0 0.0
2018-Sep-29 15:28N 52°06' E 004°16'0 0.0
2018-Sep-29 15:01N 52°06' E 004°16'0 0.0
2018-Sep-29 14:58N 52°06' E 004°16'0 0.0
2018-Sep-29 14:01N 52°06' E 004°16'0 0.0
2018-Sep-29 13:58N 52°06' E 004°16'0 0.0
2018-Sep-29 13:28N 52°06' E 004°16'0 0.0
2018-Sep-29 13:01N 52°06' E 004°16'0 0.1
2018-Sep-29 12:58N 52°06' E 004°16'0 0.0
2018-Sep-29 12:28N 52°06' E 004°16'0 0.0
2018-Sep-29 12:01N 52°06' E 004°16'0 0.0
2018-Sep-29 11:58N 52°06' E 004°16'0 0.0
2018-Sep-29 11:28N 52°06' E 004°16'0 0.0
2018-Sep-29 11:01N 52°06' E 004°16'0 0.0
2018-Sep-29 10:58N 52°06' E 004°16'0 0.0
2018-Sep-29 10:28N 52°06' E 004°16'0 0.0
2018-Sep-29 10:01N 52°06' E 004°16'0 0.0
2018-Sep-29 09:58N 52°06' E 004°16'0 0.0
2018-Sep-29 09:28N 52°06' E 004°16'0 0.0
2018-Sep-29 09:01N 52°06' E 004°16'0 0.0
2018-Sep-29 08:58N 52°06' E 004°16'0 0.0
2018-Sep-29 08:28N 52°06' E 004°16'0 0.0
2018-Sep-29 08:01N 52°06' E 004°16'0 0.0
2018-Sep-29 07:58N 52°06' E 004°16'0 0.0
2018-Sep-29 07:28N 52°06' E 004°16'0 0.0
2018-Sep-29 07:01N 52°06' E 004°16'0 0.0
2018-Sep-29 06:58N 52°06' E 004°16'0 0.0
2018-Sep-29 06:28N 52°06' E 004°16'0 0.0
2018-Sep-29 06:01N 52°06' E 004°16'0 0.1
2018-Sep-29 05:58N 52°06' E 004°16'0 0.0
2018-Sep-29 05:28N 52°06' E 004°16'0 0.0
2018-Sep-29 05:02N 52°06' E 004°16'0 0.1
2018-Sep-29 04:59N 52°06' E 004°16'0 0.0
2018-Sep-29 04:02N 52°06' E 004°16'0 0.1
2018-Sep-29 03:59N 52°06' E 004°16'0 0.0
2018-Sep-29 03:29N 52°06' E 004°16'0 0.0
2018-Sep-29 03:02N 52°06' E 004°16'0 0.0
2018-Sep-29 02:59N 52°06' E 004°16'0 0.0
2018-Sep-29 02:29N 52°06' E 004°16'0 0.0
2018-Sep-29 02:02N 52°06' E 004°16'0 0.0
2018-Sep-29 01:59N 52°06' E 004°16'0 0.0
2018-Sep-29 01:29N 52°06' E 004°16'0 0.0
2018-Sep-29 01:02N 52°06' E 004°16'0 0.0
2018-Sep-29 00:59N 52°06' E 004°16'0 0.0
2018-Sep-29 00:29N 52°06' E 004°16'0 0.0
2018-Sep-29 00:02N 52°06' E 004°16'0 0.0
2018-Sep-28 23:59N 52°06' E 004°16'0 0.0
2018-Sep-28 23:29N 52°06' E 004°16'0 0.0
2018-Sep-28 23:02N 52°06' E 004°16'0 0.0
2018-Sep-28 22:59N 52°06' E 004°16'0 0.0
2018-Sep-28 22:29N 52°06' E 004°16'0 0.0
2018-Sep-28 22:02N 52°06' E 004°16'0 0.0
2018-Sep-28 21:59N 52°06' E 004°16'0 0.0
2018-Sep-28 21:29N 52°06' E 004°16'0 0.0
2018-Sep-28 21:02N 52°06' E 004°16'0 0.0
2018-Sep-28 20:59N 52°06' E 004°16'0 0.0
2018-Sep-28 20:29N 52°06' E 004°16'0 0.0
2018-Sep-28 20:02N 52°06' E 004°16'0 0.1
2018-Sep-28 19:59N 52°06' E 004°16'0 0.0
2018-Sep-28 19:29N 52°06' E 004°16'0 0.0
2018-Sep-28 19:02N 52°06' E 004°16'0 0.0
2018-Sep-28 18:59N 52°06' E 004°16'0 0.0
2018-Sep-28 18:29N 52°06' E 004°16'0 0.0
2018-Sep-28 18:02N 52°06' E 004°16'0 0.1
2018-Sep-28 17:59N 52°06' E 004°16'0 0.0
2018-Sep-28 17:29N 52°06' E 004°16'0 0.0
2018-Sep-28 17:02N 52°06' E 004°16'0 0.0
2018-Sep-28 16:59N 52°06' E 004°16'0 0.0
2018-Sep-28 16:29N 52°06' E 004°16'0 0.0
2018-Sep-28 16:02N 52°06' E 004°16'0 0.0
2018-Sep-28 15:59N 52°06' E 004°16'0 0.0
2018-Sep-28 15:29N 52°06' E 004°16'0 0.0
2018-Sep-28 15:02N 52°06' E 004°16'0 0.0
2018-Sep-28 14:59N 52°06' E 004°16'0 0.0
2018-Sep-28 14:02N 52°06' E 004°16'0 0.0
2018-Sep-28 13:29N 52°06' E 004°16'0 0.0
2018-Sep-28 13:02N 52°06' E 004°16'0 0.1
2018-Sep-28 12:59N 52°06' E 004°16'0 0.0
2018-Sep-28 12:29N 52°06' E 004°16'0 0.0
2018-Sep-28 12:02N 52°06' E 004°16'0 0.0
2018-Sep-28 11:59N 52°06' E 004°16'0 0.0
2018-Sep-28 11:29N 52°06' E 004°16'0 0.0
2018-Sep-28 11:02N 52°06' E 004°16'0 0.0
2018-Sep-28 10:59N 52°06' E 004°16'0 0.0
2018-Sep-28 10:29N 52°06' E 004°16'0 0.0
2018-Sep-28 10:02N 52°06' E 004°16'0 0.1
2018-Sep-28 09:59N 52°06' E 004°16'0 0.0
2018-Sep-28 09:29N 52°06' E 004°16'0 0.0
2018-Sep-28 09:02N 52°06' E 004°16'0 0.0
2018-Sep-28 08:59N 52°06' E 004°16'0 0.0
2018-Sep-28 08:29N 52°06' E 004°16'0 0.0
2018-Sep-28 08:03N 52°06' E 004°16'0 1.9
2018-Sep-28 08:00N 52°06' E 004°16'510.8
2018-Sep-28 07:31N 52°11' E 004°16'510.1
2018-Sep-28 07:03N 52°16' E 004°14'110.1
2018-Sep-28 07:00N 52°16' E 004°14'4 7.4
2018-Sep-28 06:31N 52°20' E 004°14'3 7.4
2018-Sep-28 06:03N 52°23' E 004°14'0 7.3
2018-Sep-28 06:00N 52°23' E 004°14'510.5
2018-Sep-28 05:30N 52°28' E 004°10'613.0
2018-Sep-28 05:04N 52°34' E 004°06'112.9
2018-Sep-28 05:01N 52°34' E 004°06'18410.4
2018-Sep-27 11:20N 55°14' E 001°34'1 4.6
2018-Sep-27 11:03N 55°15' E 001°32'114.6
2018-Sep-27 11:00N 55°15' E 001°30'4 8.1
2018-Sep-27 10:31N 55°11' E 001°29'85 6.2
2018-Sep-26 20:53N 53°53' E 000°29'3 7.8
2018-Sep-26 20:30N 53°56' E 000°28'813.6
2018-Sep-26 19:55N 54°04' E 000°28'18 1.2
2018-Sep-26 04:55N 54°19' E 000°09'4 7.4
2018-Sep-26 04:24N 54°15' E 000°09'2 5.9
2018-Sep-26 04:02N 54°13' E 000°08'012.3
2018-Sep-26 04:01N 54°12' E 000°08'612.0
2018-Sep-26 03:31N 54°06' E 000°09'2 5.2
2018-Sep-26 03:03N 54°04' E 000°09'112.7
2018-Sep-26 03:00N 54°03' E 000°09'612.2
2018-Sep-26 02:30N 53°57' E 000°08'1 3.2
2018-Sep-26 02:03N 53°58' E 000°07'114.0
2018-Sep-26 02:00N 53°59' E 000°06'714.6
2018-Sep-26 01:30N 54°05' E 000°01'714.5
2018-Sep-26 01:03N 54°11' W 000°04'114.3
2018-Sep-26 00:59N 54°12' W 000°05'5 9.2
2018-Sep-26 00:30N 54°16' W 000°09'4 8.2
2018-Sep-26 00:03N 54°19' W 000°09'113.3
2018-Sep-26 00:00N 54°20' W 000°09'1211.0
2018-Sep-25 22:52N 54°32' W 000°10'91 3.1
2018-Sep-24 17:31N 55°57' W 001°08'3 6.6
2018-Sep-24 17:07N 55°55' W 001°10'113.9
2018-Sep-24 17:04N 55°54' W 001°10'113.4
2018-Sep-24 17:01N 55°53' W 001°10'713.0
2018-Sep-24 16:30N 55°47' W 001°09'3 6.5
2018-Sep-24 16:03N 55°44' W 001°10'112.8
2018-Sep-24 16:01N 55°43' W 001°09'612.7
2018-Sep-24 15:30N 55°37' W 001°07'2 4.5
2018-Sep-24 15:03N 55°35' W 001°09'0 5.1
2018-Sep-24 15:00N 55°35' W 001°10'1 1.7
2018-Sep-24 14:30N 55°35' W 001°11'1 2.2
2018-Sep-24 14:01N 55°35' W 001°10'1 1.6
2018-Sep-24 13:26N 55°34' W 001°09'1 2.4
2018-Sep-24 13:02N 55°34' W 001°08'0 3.0
2018-Sep-24 12:54N 55°35' W 001°07'3 2.6
2018-Sep-24 11:45N 55°38' W 001°07'2 7.3
2018-Sep-24 11:30N 55°36' W 001°09'2 4.2
2018-Sep-24 11:03N 55°34' W 001°10'10 6.4
2018-Sep-24 09:25N 55°24' W 001°10'714.0
2018-Sep-24 08:57N 55°17' W 001°10'3 5.8
2018-Sep-24 08:30N 55°15' W 001°10'612.6
2018-Sep-24 08:03N 55°09' W 001°06'0 3.3
2018-Sep-24 08:00N 55°10' W 001°06'2 4.1
2018-Sep-24 07:29N 55°12' W 001°07'1 3.0
2018-Sep-24 07:04N 55°10' W 001°06'0 5.9
2018-Sep-24 07:00N 55°10' W 001°06'2 4.2
2018-Sep-24 06:30N 55°08' W 001°07'714.5
2018-Sep-24 06:03N 55°07' W 001°18'113.9
2018-Sep-24 06:00N 55°06' W 001°19'510.9
2018-Sep-24 05:30N 55°07' W 001°29'2 4.2
2018-Sep-24 05:03N 55°08' W 001°31'0 0.0
2018-Sep-24 05:00N 55°08' W 001°31'0 0.0
2018-Sep-24 04:30N 55°08' W 001°31'0 0.0
2018-Sep-24 04:01N 55°08' W 001°31'0 0.0
2018-Sep-24 03:58N 55°08' W 001°31'0 0.0
2018-Sep-24 03:25N 55°08' W 001°31'0 0.0
2018-Sep-24 03:01N 55°08' W 001°31'0 0.0
2018-Sep-24 02:58N 55°08' W 001°31'0 0.0
2018-Sep-24 02:28N 55°08' W 001°31'0 0.0
2018-Sep-24 02:01N 55°08' W 001°31'0 0.1
2018-Sep-24 01:58N 55°08' W 001°31'0 0.0
2018-Sep-24 01:28N 55°08' W 001°31'0 0.0
2018-Sep-24 01:01N 55°08' W 001°31'0 0.0
2018-Sep-24 00:58N 55°08' W 001°31'0 0.0
2018-Sep-24 00:28N 55°08' W 001°31'0 0.0
2018-Sep-24 00:01N 55°08' W 001°31'0 0.0
2018-Sep-23 23:58N 55°08' W 001°31'0 0.0
2018-Sep-23 23:28N 55°08' W 001°31'0 0.0
2018-Sep-23 23:01N 55°08' W 001°31'0 0.0
2018-Sep-23 22:58N 55°08' W 001°31'0 0.0
2018-Sep-23 22:28N 55°08' W 001°31'0 0.0
2018-Sep-23 22:01N 55°08' W 001°31'0 0.1
2018-Sep-23 21:58N 55°08' W 001°31'0 0.0
2018-Sep-23 21:25N 55°08' W 001°31'0 0.0
2018-Sep-23 21:01N 55°08' W 001°31'0 0.0
2018-Sep-23 20:58N 55°08' W 001°31'0 0.0
2018-Sep-23 20:28N 55°08' W 001°31'0 0.0
2018-Sep-23 20:01N 55°08' W 001°31'0 0.1
2018-Sep-23 19:58N 55°08' W 001°31'0 0.0
2018-Sep-23 19:28N 55°08' W 001°31'0 0.0
2018-Sep-23 19:01N 55°08' W 001°31'0 0.1
2018-Sep-23 18:58N 55°08' W 001°31'0 0.0
2018-Sep-23 18:28N 55°08' W 001°31'0 0.0
2018-Sep-23 18:01N 55°08' W 001°31'0 0.0
2018-Sep-23 17:58N 55°08' W 001°31'0 0.0
2018-Sep-23 17:28N 55°08' W 001°31'0 0.0
2018-Sep-23 17:01N 55°08' W 001°31'0 0.0
2018-Sep-23 16:58N 55°08' W 001°31'0 0.0
2018-Sep-23 16:28N 55°08' W 001°31'0 0.0
2018-Sep-23 16:01N 55°08' W 001°31'0 0.1
2018-Sep-23 15:58N 55°08' W 001°31'0 0.0
2018-Sep-23 15:28N 55°08' W 001°31'0 0.0
2018-Sep-23 15:01N 55°08' W 001°31'0 0.0
2018-Sep-23 14:58N 55°08' W 001°31'0 0.0
2018-Sep-23 14:28N 55°08' W 001°31'0 0.0
2018-Sep-23 13:28N 55°08' W 001°31'0 0.0
2018-Sep-23 12:58N 55°08' W 001°31'0 0.0
2018-Sep-23 12:28N 55°08' W 001°31'0 0.0
2018-Sep-23 12:01N 55°08' W 001°31'0 0.0
2018-Sep-23 11:58N 55°08' W 001°31'0 0.0
2018-Sep-23 11:28N 55°08' W 001°31'0 0.0
2018-Sep-23 11:01N 55°08' W 001°31'0 0.0
2018-Sep-23 10:58N 55°08' W 001°31'0 0.0
2018-Sep-23 10:28N 55°08' W 001°31'0 0.0
2018-Sep-23 10:01N 55°08' W 001°31'0 0.0
2018-Sep-23 09:58N 55°08' W 001°31'0 0.0
2018-Sep-23 09:28N 55°08' W 001°31'0 0.0
2018-Sep-23 09:01N 55°08' W 001°31'0 0.0
2018-Sep-23 08:58N 55°08' W 001°31'0 0.0
2018-Sep-23 08:28N 55°08' W 001°31'0 0.0
2018-Sep-23 08:01N 55°08' W 001°31'0 0.1
2018-Sep-23 07:58N 55°08' W 001°31'0 0.0
2018-Sep-23 07:28N 55°08' W 001°31'0 0.0
2018-Sep-23 07:01N 55°08' W 001°31'0 0.0
2018-Sep-23 06:58N 55°08' W 001°31'0 0.0
2018-Sep-23 06:28N 55°08' W 001°31'0 0.0
2018-Sep-23 06:01N 55°08' W 001°31'0 0.0
2018-Sep-23 05:58N 55°08' W 001°31'0 0.0
2018-Sep-23 05:25N 55°08' W 001°31'0 0.0
2018-Sep-23 05:01N 55°08' W 001°31'0 0.0
2018-Sep-23 04:58N 55°08' W 001°31'0 0.0
2018-Sep-23 04:28N 55°08' W 001°31'0 0.0
2018-Sep-23 04:01N 55°08' W 001°31'0 0.1
2018-Sep-23 03:58N 55°08' W 001°31'0 0.0
2018-Sep-23 03:28N 55°08' W 001°31'0 0.0
2018-Sep-23 03:01N 55°08' W 001°31'0 0.0
2018-Sep-23 02:58N 55°08' W 001°31'0 0.0
2018-Sep-23 02:28N 55°08' W 001°31'0 0.0
2018-Sep-23 02:01N 55°08' W 001°31'0 0.0
2018-Sep-23 01:58N 55°08' W 001°31'0 0.0
2018-Sep-23 01:28N 55°08' W 001°31'0 0.0
2018-Sep-23 01:01N 55°08' W 001°31'0 0.0
2018-Sep-23 00:58N 55°08' W 001°31'0 0.0
2018-Sep-23 00:28N 55°08' W 001°31'0 0.0
2018-Sep-23 00:01N 55°08' W 001°31'0 0.1
2018-Sep-22 23:58N 55°08' W 001°31'0 0.0
2018-Sep-22 23:28N 55°08' W 001°31'0 0.0
2018-Sep-22 22:58N 55°08' W 001°31'0 0.0
2018-Sep-22 22:28N 55°08' W 001°31'0 0.0
2018-Sep-22 22:01N 55°08' W 001°31'0 0.0
2018-Sep-22 21:58N 55°08' W 001°31'0 0.0
2018-Sep-22 21:28N 55°08' W 001°31'0 0.0
2018-Sep-22 21:01N 55°08' W 001°31'0 0.0
2018-Sep-22 20:58N 55°08' W 001°31'0 0.0
2018-Sep-22 20:28N 55°08' W 001°31'0 0.0
2018-Sep-22 20:01N 55°08' W 001°31'0 0.1
2018-Sep-22 19:58N 55°08' W 001°31'0 0.0
2018-Sep-22 19:28N 55°08' W 001°31'0 0.0
2018-Sep-22 19:01N 55°08' W 001°31'0 0.1
2018-Sep-22 18:58N 55°08' W 001°31'0 0.0
2018-Sep-22 18:28N 55°08' W 001°31'0 0.0
2018-Sep-22 18:01N 55°08' W 001°31'0 0.0
2018-Sep-22 17:58N 55°08' W 001°31'0 0.0
2018-Sep-22 17:28N 55°08' W 001°31'0 0.0
2018-Sep-22 17:01N 55°08' W 001°31'0 0.0
2018-Sep-22 16:58N 55°08' W 001°31'0 0.0
2018-Sep-22 16:28N 55°08' W 001°31'0 0.0
2018-Sep-22 16:01N 55°08' W 001°31'0 0.1
2018-Sep-22 15:58N 55°08' W 001°31'0 0.0
2018-Sep-22 15:31N 55°08' W 001°31'2 3.8
2018-Sep-22 15:03N 55°07' W 001°29'0 8.6
2018-Sep-22 15:00N 55°06' W 001°29'3 6.8
2018-Sep-22 14:30N 55°05' W 001°23'  

Dump ship's entire track history